Time;durP1;ratioP1;P1;durP2;ratioP2;P2;SDS_P1;SDS_P2;PMS_P1;PMS_P2;Temp;Humidity;BMP_temperature;BMP_pressure;BME280_temperature;BME280_humidity;BME280_pressure;Samples;Min_cycle;Max_cycle;Signal;HPM_P1;HPM_P2
2022/04/13 00:00:11;;;;;;;28.10;26.40;;;13.90;73.70;;;;;;5074479;28;20454;-75
2022/04/13 00:02:40;;;;;;;27.83;26.33;;;13.80;74.60;;;;;;5074626;28;20470;-75
2022/04/13 00:05:08;;;;;;;28.33;26.63;;;13.80;74.20;;;;;;5074549;28;20454;-75
2022/04/13 00:07:35;;;;;;;29.83;27.70;;;13.80;74.20;;;;;;5074050;28;20465;-75
2022/04/13 00:10:03;;;;;;;27.07;25.43;;;13.80;74.30;;;;;;5072085;28;20501;-76
2022/04/13 00:12:30;;;;;;;28.17;26.50;;;13.70;74.10;;;;;;5072233;28;20489;-76
2022/04/13 00:14:57;;;;;;;27.00;25.30;;;13.70;74.40;;;;;;5072373;28;20479;-76
2022/04/13 00:17:24;;;;;;;27.33;25.70;;;13.60;74.70;;;;;;5072366;28;20451;-76
2022/04/13 00:19:52;;;;;;;27.47;25.87;;;13.50;75.30;;;;;;5072063;28;20454;-76
2022/04/13 00:22:19;;;;;;;27.63;26.03;;;13.50;75.30;;;;;;5072568;28;20455;-76
2022/04/13 00:24:46;;;;;;;26.80;25.23;;;13.50;75.30;;;;;;5072277;28;20450;-76
2022/04/13 00:27:12;;;;;;;28.07;25.90;;;13.50;75.50;;;;;;5072563;28;21046;-76
2022/04/13 00:29:39;;;;;;;28.13;26.20;;;13.30;75.90;;;;;;5071657;28;20553;-76
2022/04/13 00:32:07;;;;;;;27.23;25.60;;;13.40;76.10;;;;;;5072490;28;21028;-75
2022/04/13 00:34:34;;;;;;;26.37;24.87;;;13.40;75.90;;;;;;5072220;28;20531;-76
2022/04/13 00:37:02;;;;;;;26.63;25.07;;;13.30;76.40;;;;;;5072410;28;20451;-76
2022/04/13 00:39:29;;;;;;;27.23;25.60;;;13.30;76.30;;;;;;5071864;28;20948;-76
2022/04/13 00:41:58;;;;;;;27.50;25.60;;;13.30;76.30;;;;;;5072320;28;20879;-75
2022/04/13 00:44:27;;;;;;;27.33;25.73;;;13.20;76.40;;;;;;5072210;28;20470;-75
2022/04/13 00:46:54;;;;;;;27.90;26.30;;;13.20;76.30;;;;;;5072297;28;20464;-76
2022/04/13 00:49:22;;;;;;;26.80;25.10;;;13.20;76.40;;;;;;5071702;28;20450;-75
2022/04/13 00:51:49;;;;;;;26.53;24.93;;;13.10;76.80;;;;;;5072307;28;20446;-75
2022/04/13 00:54:20;;;;;;;28.03;25.93;;;13.10;77.10;;;;;;5072363;28;20565;-76
2022/04/13 00:56:50;;;;;;;27.93;26.33;;;13.10;76.90;;;;;;5072027;28;20918;-75
2022/04/13 00:59:17;;;;;;;26.67;25.17;;;13.00;77.00;;;;;;5071502;28;20577;-76
2022/04/13 01:01:49;;;;;;;27.03;25.33;;;13.00;76.80;;;;;;5072219;28;20816;-75
2022/04/13 01:04:17;;;;;;;27.53;25.90;;;13.00;77.00;;;;;;5072177;28;20517;-76
2022/04/13 01:06:45;;;;;;;28.07;26.30;;;12.90;77.40;;;;;;5071949;28;20454;-75
2022/04/13 01:09:12;;;;;;;27.83;26.03;;;12.80;77.60;;;;;;5071565;28;20459;-76
2022/04/13 01:11:41;;;;;;;26.40;24.80;;;12.80;77.40;;;;;;5071560;28;20454;-76
2022/04/13 01:14:10;;;;;;;26.93;25.40;;;12.80;77.60;;;;;;5072424;28;20501;-75
2022/04/13 01:16:39;;;;;;;26.33;24.73;;;12.70;77.70;;;;;;5071762;28;20526;-76
2022/04/13 01:19:08;;;;;;;26.77;25.10;;;12.70;77.80;;;;;;5071706;28;20542;-75
2022/04/13 01:21:45;;;;;;;26.10;24.37;;;12.70;78.60;;;;;;5071741;28;20982;-76
2022/04/13 01:24:14;;;;;;;27.10;25.37;;;12.70;77.60;;;;;;5071868;28;20895;-75
2022/04/13 01:26:41;;;;;;;26.87;25.17;;;12.70;77.50;;;;;;5071707;28;20465;-76
2022/04/13 01:29:08;;;;;;;27.17;25.47;;;12.70;77.20;;;;;;5071644;28;20454;-75
2022/04/13 01:31:35;;;;;;;27.73;26.13;;;12.70;77.30;;;;;;5071748;28;20457;-76
2022/04/13 01:34:02;;;;;;;28.00;26.30;;;12.70;77.20;;;;;;5071648;28;20578;-76
2022/04/13 01:36:30;;;;;;;28.00;26.20;;;12.70;77.00;;;;;;5072769;28;20831;-76
2022/04/13 01:38:57;;;;;;;27.47;25.87;;;12.70;77.00;;;;;;5075744;28;20501;-75
2022/04/13 01:41:25;;;;;;;27.00;25.50;;;12.60;77.10;;;;;;5075104;28;20497;-75
2022/04/13 01:43:52;;;;;;;26.27;24.67;;;12.50;77.30;;;;;;5075541;28;20840;-75
2022/04/13 01:46:18;;;;;;;26.63;24.77;;;12.50;77.30;;;;;;5075681;28;20465;-75
2022/04/13 01:48:46;;;;;;;26.53;25.03;;;12.50;77.20;;;;;;5075348;28;20936;-75
2022/04/13 01:51:12;;;;;;;27.10;25.40;;;12.50;77.00;;;;;;5075142;28;20549;-75
2022/04/13 01:53:39;;;;;;;28.20;26.40;;;12.50;76.90;;;;;;5075495;28;20547;-75
2022/04/13 01:56:06;;;;;;;27.10;25.47;;;12.50;77.00;;;;;;5075451;28;20529;-75
2022/04/13 01:58:35;;;;;;;28.23;26.43;;;12.50;77.30;;;;;;5075598;28;20502;-75
2022/04/13 02:01:01;;;;;;;26.47;24.80;;;12.50;77.10;;;;;;5074769;28;20936;-75
2022/04/13 02:03:30;;;;;;;27.30;25.70;;;12.50;77.00;;;;;;5075142;28;20470;-75
2022/04/13 02:05:57;;;;;;;27.03;25.57;;;12.50;77.10;;;;;;5075032;28;20489;-76
2022/04/13 02:08:24;;;;;;;27.47;25.77;;;12.50;76.80;;;;;;5075381;28;20454;-76
2022/04/13 02:10:51;;;;;;;27.30;25.37;;;12.40;76.90;;;;;;5074406;28;20454;-76
2022/04/13 02:13:21;;;;;;;27.10;25.10;;;12.40;77.00;;;;;;5074819;28;20498;-74
2022/04/13 02:15:50;;;;;;;27.13;25.60;;;12.40;77.10;;;;;;5074941;28;20462;-75
2022/04/13 02:18:17;;;;;;;27.33;25.53;;;12.30;77.30;;;;;;5074741;28;20535;-75
2022/04/13 02:20:44;;;;;;;26.70;25.13;;;12.30;77.40;;;;;;5074308;28;20534;-75
2022/04/13 02:23:11;;;;;;;28.07;26.27;;;12.30;77.60;;;;;;5074911;28;20557;-75
2022/04/13 02:25:38;;;;;;;27.97;26.20;;;12.20;77.70;;;;;;5074545;28;20842;-75
2022/04/13 02:28:05;;;;;;;26.90;25.40;;;12.10;78.00;;;;;;5074863;28;20461;-75
2022/04/13 02:30:33;;;;;;;28.27;26.60;;;12.10;78.10;;;;;;5074158;28;20545;-75
2022/04/13 02:33:02;;;;;;;26.03;24.30;;;12.10;78.10;;;;;;5074707;28;20484;-75
2022/04/13 02:35:29;;;;;;;26.47;24.60;;;12.10;78.20;;;;;;5074372;28;20481;-75
2022/04/13 02:37:56;;;;;;;27.07;25.17;;;12.00;78.30;;;;;;5074478;28;20498;-75
2022/04/13 02:40:23;;;;;;;26.43;24.83;;;12.00;78.50;;;;;;5073944;28;20456;-76
2022/04/13 02:42:50;;;;;;;26.17;24.50;;;12.00;78.30;;;;;;5074484;28;20471;-75
2022/04/13 02:45:17;;;;;;;28.13;26.07;;;11.90;78.50;;;;;;5074406;28;20825;-75
2022/04/13 02:47:44;;;;;;;27.37;25.60;;;11.90;79.20;;;;;;5073329;28;20545;-75
2022/04/13 02:50:12;;;;;;;26.80;25.10;;;11.90;79.10;;;;;;5073750;28;20461;-75
2022/04/13 02:52:39;;;;;;;28.50;26.70;;;11.80;79.10;;;;;;5074430;28;20477;-75
2022/04/13 02:55:08;;;;;;;27.07;25.17;;;11.80;79.10;;;;;;5074199;28;21007;-75
2022/04/13 02:57:36;;;;;;;27.73;25.67;;;11.90;78.90;;;;;;5074361;28;20507;-75
2022/04/13 03:00:03;;;;;;;29.27;27.60;;;11.80;78.90;;;;;;5074019;28;20490;-75
2022/04/13 03:02:30;;;;;;;26.93;25.10;;;11.70;79.60;;;;;;5076659;28;20478;-75
2022/04/13 03:04:57;;;;;;;26.20;24.70;;;11.70;79.40;;;;;;5076001;28;20478;-75
2022/04/13 03:07:29;;;;;;;26.57;24.80;;;11.60;79.50;;;;;;5076129;28;21047;-75
2022/04/13 03:09:56;;;;;;;27.03;25.43;;;11.60;79.50;;;;;;5075261;28;20465;-75
2022/04/13 03:12:24;;;;;;;27.30;25.20;;;11.60;79.60;;;;;;5074208;28;20467;-75
2022/04/13 03:14:51;;;;;;;25.03;23.63;;;11.60;80.60;;;;;;5074001;28;20489;-75
2022/04/13 03:17:18;;;;;;;26.43;24.83;;;11.50;80.50;;;;;;5073738;28;20455;-75
2022/04/13 03:19:44;;;;;;;25.60;24.20;;;11.50;79.80;;;;;;5073297;28;20815;-75
2022/04/13 03:22:11;;;;;;;26.57;24.80;;;11.40;79.50;;;;;;5073613;28;20544;-75
2022/04/13 03:24:40;;;;;;;26.57;24.83;;;11.40;79.60;;;;;;5073637;28;20443;-75
2022/04/13 03:27:06;;;;;;;26.70;25.20;;;11.50;79.50;;;;;;5073551;28;20542;-75
2022/04/13 03:29:33;;;;;;;27.60;26.00;;;11.50;79.40;;;;;;5073086;28;20457;-75
2022/04/13 03:32:00;;;;;;;26.67;25.07;;;11.50;79.50;;;;;;5073613;28;20482;-75
2022/04/13 03:34:28;;;;;;;29.23;27.63;;;11.40;79.70;;;;;;5073159;28;20488;-75
2022/04/13 03:36:54;;;;;;;27.17;25.27;;;11.40;79.90;;;;;;5073723;28;20455;-75
2022/04/13 03:39:21;;;;;;;26.03;24.40;;;11.30;80.10;;;;;;5072803;28;20829;-75
2022/04/13 03:41:50;;;;;;;26.97;25.37;;;11.40;79.90;;;;;;5073511;28;20450;-75
2022/04/13 03:44:17;;;;;;;27.03;25.23;;;11.40;79.60;;;;;;5073217;28;20470;-75
2022/04/13 03:46:44;;;;;;;27.03;24.93;;;11.30;79.80;;;;;;5073561;28;20453;-75
2022/04/13 03:49:11;;;;;;;27.00;25.20;;;11.30;80.00;;;;;;5072800;28;20455;-75
2022/04/13 03:51:38;;;;;;;26.47;24.87;;;11.20;80.40;;;;;;5073346;28;20451;-75
2022/04/13 03:54:05;;;;;;;26.90;25.00;;;11.20;80.80;;;;;;5073177;28;20470;-75
2022/04/13 03:56:33;;;;;;;28.10;26.33;;;11.10;80.80;;;;;;5073295;28;20450;-75
2022/04/13 03:59:02;;;;;;;29.90;28.00;;;11.10;80.90;;;;;;5072794;28;20641;-75
2022/04/13 04:01:29;;;;;;;28.77;26.83;;;11.10;81.00;;;;;;5073178;28;20447;-75
2022/04/13 04:03:56;;;;;;;27.73;26.03;;;11.00;81.20;;;;;;5072992;28;20481;-75
2022/04/13 04:06:23;;;;;;;26.57;24.97;;;11.00;81.20;;;;;;5072861;28;20962;-75
2022/04/13 04:08:50;;;;;;;26.30;24.60;;;11.10;81.20;;;;;;5072972;28;20828;-75
2022/04/13 04:11:17;;;;;;;28.77;27.03;;;11.10;81.00;;;;;;5072180;28;20454;-75
2022/04/13 04:13:44;;;;;;;28.27;26.57;;;11.10;80.80;;;;;;5073141;28;20466;-75
2022/04/13 04:16:12;;;;;;;27.00;25.13;;;11.10;80.70;;;;;;5072660;28;20574;-75
2022/04/13 04:18:39;;;;;;;27.70;26.10;;;11.10;80.80;;;;;;5072264;28;20465;-75
2022/04/13 04:21:06;;;;;;;27.10;25.60;;;11.00;80.90;;;;;;5072042;28;20460;-75
2022/04/13 04:23:33;;;;;;;27.83;26.13;;;11.00;81.00;;;;;;5072536;28;20513;-75
2022/04/13 04:26:01;;;;;;;27.17;25.47;;;11.00;81.10;;;;;;5072669;28;20531;-75
2022/04/13 04:28:28;;;;;;;27.63;25.83;;;11.00;81.10;;;;;;5072535;28;20920;-75
2022/04/13 04:30:55;;;;;;;28.27;26.47;;;10.90;81.40;;;;;;5072330;28;20858;-75
2022/04/13 04:33:26;;;;;;;26.63;24.73;;;10.90;81.30;;;;;;5072481;28;20570;-75
2022/04/13 04:35:53;;;;;;;28.30;26.50;;;10.90;81.60;;;;;;5072350;28;20566;-75
2022/04/13 04:38:20;;;;;;;28.57;26.67;;;10.80;81.60;;;;;;5072389;28;20530;-75
2022/04/13 04:40:47;;;;;;;28.47;26.47;;;10.80;81.50;;;;;;5071741;28;20463;-75
2022/04/13 04:43:14;;;;;;;29.53;27.43;;;10.80;81.50;;;;;;5072283;28;20474;-75
2022/04/13 04:45:41;;;;;;;27.53;25.47;;;10.90;81.50;;;;;;5072390;28;20447;-75
2022/04/13 04:48:08;;;;;;;28.67;26.77;;;10.90;81.30;;;;;;5072199;28;20541;-75
2022/04/13 04:50:37;;;;;;;28.43;26.63;;;10.90;81.30;;;;;;5071484;28;20491;-75
2022/04/13 04:53:04;;;;;;;29.10;27.10;;;10.90;81.10;;;;;;5072172;28;20561;-75
2022/04/13 04:55:32;;;;;;;28.70;26.50;;;11.00;80.60;;;;;;5072441;28;20479;-75
2022/04/13 04:57:59;;;;;;;27.27;25.57;;;11.10;80.40;;;;;;5072287;28;20459;-75
2022/04/13 05:00:26;;;;;;;27.07;25.37;;;11.10;80.20;;;;;;5071672;28;20486;-75
2022/04/13 05:02:54;;;;;;;28.23;26.40;;;11.20;80.00;;;;;;5072185;28;20553;-75
2022/04/13 05:05:22;;;;;;;27.50;25.70;;;11.20;79.90;;;;;;5072225;28;20948;-75
2022/04/13 05:07:50;;;;;;;26.63;24.93;;;11.30;79.70;;;;;;5072110;28;20454;-75
2022/04/13 05:10:17;;;;;;;26.97;25.03;;;11.40;79.40;;;;;;5071457;28;20960;-75
2022/04/13 05:12:45;;;;;;;27.80;25.80;;;11.50;79.00;;;;;;5074703;28;20488;-75
2022/04/13 05:15:13;;;;;;;29.00;27.20;;;11.50;78.90;;;;;;5076060;28;20478;-75
2022/04/13 05:17:41;;;;;;;27.67;25.67;;;11.70;78.50;;;;;;5075884;28;20454;-75
2022/04/13 05:20:09;;;;;;;26.47;24.67;;;11.80;77.90;;;;;;5075436;28;20944;-75
2022/04/13 05:22:36;;;;;;;29.07;26.80;;;11.90;77.60;;;;;;5076012;28;20470;-75
2022/04/13 05:25:09;;;;;;;29.43;27.53;;;11.80;77.70;;;;;;5075815;28;20457;-75
2022/04/13 05:27:36;;;;;;;28.63;26.73;;;11.80;78.10;;;;;;5075742;28;20530;-75
2022/04/13 05:30:03;;;;;;;28.33;26.43;;;11.80;78.10;;;;;;5075138;28;20454;-75
2022/04/13 05:32:30;;;;;;;29.20;27.20;;;11.80;78.20;;;;;;5075681;28;20531;-75
2022/04/13 05:35:01;;;;;;;27.77;26.10;;;12.00;77.60;;;;;;5075481;28;20557;-75
2022/04/13 05:37:28;;;;;;;28.53;26.73;;;12.00;77.10;;;;;;5075726;28;20450;-75
2022/04/13 05:39:55;;;;;;;30.30;27.97;;;12.10;76.80;;;;;;5075125;28;20451;-75
2022/04/13 05:42:25;;;;;;;27.67;25.80;;;12.20;76.70;;;;;;5075369;28;20465;-75
2022/04/13 05:44:52;;;;;;;27.10;25.40;;;12.20;76.60;;;;;;5075563;28;20446;-75
2022/04/13 05:47:19;;;;;;;28.73;26.70;;;12.30;76.40;;;;;;5075271;28;21024;-75
2022/04/13 05:49:46;;;;;;;28.63;26.83;;;12.40;76.20;;;;;;5074941;28;21022;-75
2022/04/13 05:52:13;;;;;;;27.53;25.83;;;12.50;76.00;;;;;;5075431;28;20472;-75
2022/04/13 05:54:40;;;;;;;27.73;26.00;;;12.60;75.80;;;;;;5075354;28;20540;-75
2022/04/13 05:57:07;;;;;;;29.30;27.20;;;12.80;75.40;;;;;;5075266;28;20534;-75
2022/04/13 05:59:35;;;;;;;28.80;26.27;;;13.00;74.70;;;;;;5074785;28;20516;-75
2022/04/13 06:02:03;;;;;;;29.50;27.60;;;13.10;74.30;;;;;;5075185;28;20453;-75
2022/04/13 06:04:30;;;;;;;30.13;28.23;;;13.20;73.90;;;;;;5075496;28;20975;-75
2022/04/13 06:06:59;;;;;;;29.87;27.77;;;13.40;73.60;;;;;;5074939;28;20450;-75
2022/04/13 06:09:26;;;;;;;27.23;25.33;;;13.40;73.50;;;;;;5074336;28;20457;-76
2022/04/13 06:11:54;;;;;;;28.50;26.70;;;13.60;73.00;;;;;;5074619;28;20509;-75
2022/04/13 06:14:22;;;;;;;28.57;26.33;;;13.70;72.80;;;;;;5074977;28;20474;-75
2022/04/13 06:16:50;;;;;;;28.23;26.23;;;13.80;72.50;;;;;;5074707;28;21022;-75
2022/04/13 06:19:17;;;;;;;31.20;29.00;;;14.00;71.80;;;;;;5074352;28;20538;-76
2022/04/13 06:21:44;;;;;;;29.00;27.00;;;14.10;71.50;;;;;;5074495;28;20538;-76
2022/04/13 06:24:11;;;;;;;29.43;27.30;;;14.30;71.10;;;;;;5074680;28;20471;-75
2022/04/13 06:26:38;;;;;;;30.60;28.07;;;14.50;70.60;;;;;;5074638;28;21011;-76
2022/04/13 06:29:05;;;;;;;29.70;26.90;;;14.60;70.00;;;;;;5074471;28;20446;-75
2022/04/13 06:31:32;;;;;;;28.30;26.40;;;14.80;69.50;;;;;;5074483;28;20454;-76
2022/04/13 06:34:00;;;;;;;30.10;27.97;;;14.90;69.10;;;;;;5074608;28;20475;-75
2022/04/13 06:36:27;;;;;;;28.70;26.60;;;15.10;68.40;;;;;;5074265;28;20485;-76
2022/04/13 06:38:55;;;;;;;30.13;27.90;;;15.20;68.10;;;;;;5074500;28;20541;-75
2022/04/13 06:41:22;;;;;;;27.87;25.67;;;15.40;67.70;;;;;;5073791;28;20496;-76
2022/04/13 06:43:49;;;;;;;29.33;27.23;;;15.60;67.10;;;;;;5074415;28;20561;-76
2022/04/13 06:46:15;;;;;;;29.67;27.57;;;15.70;66.70;;;;;;5074398;28;20442;-76
2022/04/13 06:48:42;;;;;;;29.50;27.47;;;15.80;66.40;;;;;;5074255;28;20461;-76
2022/04/13 06:51:11;;;;;;;32.87;30.37;;;16.00;66.20;;;;;;5073708;28;20446;-76
2022/04/13 06:53:37;;;;;;;28.60;26.77;;;16.10;65.60;;;;;;5074414;28;20484;-76
2022/04/13 06:56:05;;;;;;;29.43;27.47;;;16.30;65.30;;;;;;5074211;28;20481;-76
2022/04/13 06:58:32;;;;;;;30.17;28.00;;;16.40;65.10;;;;;;5074313;28;20816;-76
2022/04/13 07:00:59;;;;;;;29.80;27.80;;;16.50;65.00;;;;;;5073714;28;20454;-76
2022/04/13 07:03:26;;;;;;;30.37;27.90;;;16.60;64.50;;;;;;5073876;28;20991;-76
2022/04/13 07:05:53;;;;;;;32.33;30.23;;;16.80;64.10;;;;;;5073984;28;20482;-76
2022/04/13 07:08:21;;;;;;;30.43;28.43;;;16.90;63.90;;;;;;5073816;28;20541;-76
2022/04/13 07:10:48;;;;;;;34.07;31.67;;;17.00;63.70;;;;;;5073471;28;20533;-76
2022/04/13 07:13:16;;;;;;;30.40;28.10;;;17.20;63.50;;;;;;5073369;28;20486;-76
2022/04/13 07:15:44;;;;;;;29.97;27.90;;;17.30;63.10;;;;;;5073721;28;20486;-76
2022/04/13 07:18:11;;;;;;;30.07;28.00;;;17.40;62.70;;;;;;5073520;28;20472;-76
2022/04/13 07:20:37;;;;;;;29.60;27.50;;;17.60;62.50;;;;;;5073139;28;20454;-76
2022/04/13 07:23:04;;;;;;;30.87;28.80;;;17.70;62.20;;;;;;5073851;28;20869;-76
2022/04/13 07:25:33;;;;;;;30.33;28.23;;;17.80;61.80;;;;;;5073672;28;20453;-76
2022/04/13 07:28:00;;;;;;;30.70;28.70;;;17.90;61.40;;;;;;5073553;28;20453;-76
2022/04/13 07:30:27;;;;;;;30.93;28.77;;;18.10;61.10;;;;;;5073230;28;20533;-76
2022/04/13 07:32:58;;;;;;;34.57;32.37;;;18.10;60.80;;;;;;5073765;28;20484;-76
2022/04/13 07:35:25;;;;;;;31.40;29.20;;;18.20;60.70;;;;;;5072493;28;20479;-76
2022/04/13 07:37:52;;;;;;;30.90;28.70;;;18.30;60.50;;;;;;5073438;28;20460;-76
2022/04/13 07:40:19;;;;;;;33.27;30.67;;;18.40;60.10;;;;;;5072646;28;20530;-76
2022/04/13 07:42:47;;;;;;;31.67;29.47;;;18.50;59.80;;;;;;5073317;28;20470;-76
2022/04/13 07:45:14;;;;;;;31.90;29.60;;;18.50;59.70;;;;;;5073075;28;20447;-76
2022/04/13 07:47:41;;;;;;;33.40;30.70;;;18.60;59.40;;;;;;5072985;28;20536;-76
2022/04/13 07:50:12;;;;;;;31.80;29.47;;;18.80;59.20;;;;;;5072525;28;20482;-76
2022/04/13 07:52:40;;;;;;;32.03;29.80;;;18.90;58.60;;;;;;5073146;28;20474;-76
2022/04/13 07:55:09;;;;;;;33.70;31.00;;;18.90;58.60;;;;;;5072954;28;20461;-76
2022/04/13 07:57:36;;;;;;;34.00;31.10;;;19.00;58.40;;;;;;5072931;28;20454;-76
2022/04/13 08:00:06;;;;;;;31.40;29.20;;;19.00;58.20;;;;;;5072172;28;20538;-76
2022/04/13 08:02:34;;;;;;;31.23;29.00;;;19.10;58.00;;;;;;5072855;28;20470;-76
2022/04/13 08:05:01;;;;;;;32.00;29.40;;;19.10;57.90;;;;;;5072757;28;20461;-76
2022/04/13 08:07:28;;;;;;;32.67;30.17;;;19.10;57.90;;;;;;5072898;28;20446;-76
2022/04/13 08:09:54;;;;;;;37.80;34.87;;;19.30;57.70;;;;;;5072088;28;20514;-76
2022/04/13 08:12:21;;;;;;;33.47;30.50;;;19.40;57.40;;;;;;5072392;28;20470;-76
2022/04/13 08:14:49;;;;;;;35.37;32.27;;;19.40;57.20;;;;;;5072758;28;20537;-76
2022/04/13 08:17:18;;;;;;;33.17;29.93;;;19.40;57.50;;;;;;5072600;28;20798;-76
2022/04/13 08:19:45;;;;;;;31.70;29.27;;;19.50;57.60;;;;;;5071908;28;20461;-76
2022/04/13 08:22:13;;;;;;;31.03;28.80;;;19.60;57.60;;;;;;5072710;28;20465;-76
2022/04/13 08:24:39;;;;;;;31.07;28.87;;;19.70;57.30;;;;;;5072381;28;20768;-76
2022/04/13 08:27:09;;;;;;;31.27;29.07;;;19.80;57.00;;;;;;5072390;28;20466;-76
2022/04/13 08:29:36;;;;;;;32.13;29.73;;;19.90;56.90;;;;;;5071758;28;20466;-76
2022/04/13 08:32:04;;;;;;;32.47;30.00;;;20.00;56.40;;;;;;5072427;28;20554;-76
2022/04/13 08:34:33;;;;;;;30.80;28.60;;;20.00;56.50;;;;;;5072110;28;20484;-76
2022/04/13 08:37:00;;;;;;;31.57;29.47;;;20.10;56.10;;;;;;5072211;28;20478;-76
2022/04/13 08:39:26;;;;;;;31.63;29.53;;;20.20;55.50;;;;;;5071741;28;20450;-76
2022/04/13 08:41:58;;;;;;;29.97;27.90;;;20.30;54.90;;;;;;5072331;28;20541;-76
2022/04/13 08:44:31;;;;;;;29.47;27.50;;;20.30;54.40;;;;;;5072273;28;20558;-76
2022/04/13 08:47:02;;;;;;;28.43;26.53;;;20.30;52.70;;;;;;5072147;28;20450;-76
2022/04/13 08:49:34;;;;;;;28.00;25.83;;;20.50;51.60;;;;;;5071668;28;20978;-76
2022/04/13 08:52:04;;;;;;;30.90;28.63;;;20.50;51.00;;;;;;5072017;28;20458;-76
2022/04/13 08:54:36;;;;;;;29.73;27.20;;;20.60;50.60;;;;;;5072111;28;20477;-76
2022/04/13 08:57:08;;;;;;;27.40;25.60;;;20.70;50.00;;;;;;5072104;28;20475;-76
2022/04/13 08:59:46;;;;;;;27.67;25.63;;;20.90;49.10;;;;;;5071628;28;20459;-76
2022/04/13 09:02:25;;;;;;;29.73;27.60;;;21.00;46.30;;;;;;5072121;28;20504;-76
2022/04/13 09:04:57;;;;;;;29.97;27.87;;;21.10;46.40;;;;;;5072058;28;20462;-76
2022/04/13 09:07:31;;;;;;;29.07;27.30;;;21.10;46.80;;;;;;5072197;28;20465;-76
2022/04/13 09:10:02;;;;;;;28.93;26.63;;;21.10;46.30;;;;;;5071438;28;20481;-76
2022/04/13 09:12:30;;;;;;;27.57;25.80;;;21.20;46.10;;;;;;5071447;28;20486;-76
2022/04/13 09:14:58;;;;;;;29.17;27.27;;;21.20;45.80;;;;;;5071901;28;20458;-76
2022/04/13 09:17:28;;;;;;;28.63;26.63;;;21.30;44.80;;;;;;5071708;28;20485;-76
2022/04/13 09:19:57;;;;;;;26.40;24.80;;;21.50;43.90;;;;;;5071331;28;20486;-75
2022/04/13 09:22:24;;;;;;;28.83;26.87;;;21.60;43.70;;;;;;5071750;28;20451;-75
2022/04/13 09:24:52;;;;;;;28.33;26.10;;;21.80;43.30;;;;;;5071951;28;21018;-75
2022/04/13 09:27:20;;;;;;;28.43;26.20;;;21.90;43.10;;;;;;5071963;28;20461;-75
2022/04/13 09:29:47;;;;;;;28.13;26.30;;;21.90;43.30;;;;;;5071408;28;20447;-75
2022/04/13 09:32:15;;;;;;;27.30;25.60;;;21.90;43.60;;;;;;5071762;28;20454;-75
2022/04/13 09:34:42;;;;;;;28.00;25.50;;;21.90;44.10;;;;;;5071709;28;21023;-75
2022/04/13 09:37:11;;;;;;;27.90;25.87;;;21.90;43.50;;;;;;5071571;28;20479;-75
2022/04/13 09:39:39;;;;;;;27.80;26.00;;;21.90;43.50;;;;;;5071078;28;20932;-75
2022/04/13 09:42:06;;;;;;;28.83;26.73;;;21.90;43.00;;;;;;5071718;28;20554;-75
2022/04/13 09:44:34;;;;;;;28.87;26.77;;;22.10;42.40;;;;;;5071673;28;20510;-75
2022/04/13 09:47:07;;;;;;;27.90;25.80;;;22.20;42.30;;;;;;5071824;28;20500;-75
2022/04/13 09:49:34;;;;;;;29.00;26.80;;;22.40;41.40;;;;;;5071294;28;20466;-75
2022/04/13 09:52:01;;;;;;;29.50;27.50;;;22.50;42.00;;;;;;5071678;28;20450;-75
2022/04/13 09:54:29;;;;;;;29.60;27.40;;;22.50;44.50;;;;;;5071479;28;20474;-75
2022/04/13 09:56:56;;;;;;;28.77;26.73;;;22.30;45.10;;;;;;5071777;28;20480;-75
2022/04/13 09:59:27;;;;;;;29.90;27.93;;;22.40;44.80;;;;;;5074850;28;20545;-75
2022/04/13 10:01:55;;;;;;;28.80;26.50;;;22.40;44.80;;;;;;5075296;28;20454;-75
2022/04/13 10:04:26;;;;;;;27.73;25.73;;;22.60;44.40;;;;;;5075164;28;20648;-75
2022/04/13 10:06:53;;;;;;;29.20;27.23;;;22.60;43.90;;;;;;5075032;28;20533;-75
2022/04/13 10:09:20;;;;;;;29.03;27.13;;;22.50;43.80;;;;;;5074659;28;20955;-75
2022/04/13 10:12:04;;;;;;;28.60;26.50;;;22.50;44.20;;;;;;5074766;28;20962;-75
2022/04/13 10:14:32;;;;;;;29.33;27.37;;;22.50;44.70;;;;;;5073915;28;20983;-75
2022/04/13 10:17:07;;;;;;;28.37;26.47;;;22.30;44.30;;;;;;5074688;28;20474;-75
2022/04/13 10:19:35;;;;;;;28.33;26.13;;;22.30;44.20;;;;;;5074171;28;20458;-75
2022/04/13 10:22:02;;;;;;;28.20;25.70;;;22.40;43.40;;;;;;5074983;28;20454;-75
2022/04/13 10:24:30;;;;;;;28.27;26.13;;;22.50;43.20;;;;;;5074681;28;20466;-75
2022/04/13 10:27:01;;;;;;;27.10;25.07;;;22.60;43.00;;;;;;5074898;28;20529;-75
2022/04/13 10:29:30;;;;;;;28.93;26.93;;;22.80;42.90;;;;;;5074084;28;20454;-75
2022/04/13 10:32:08;;;;;;;29.73;27.50;;;22.70;43.40;;;;;;5074535;28;20470;-75
2022/04/13 10:34:35;;;;;;;26.93;25.33;;;22.90;43.70;;;;;;5074572;28;21029;-75
2022/04/13 10:37:03;;;;;;;29.67;27.37;;;22.90;43.60;;;;;;5074533;28;20478;-75
2022/04/13 10:39:30;;;;;;;28.00;26.00;;;22.80;44.20;;;;;;5074158;28;20815;-75
2022/04/13 10:41:57;;;;;;;29.10;26.80;;;22.50;45.20;;;;;;5074421;28;20553;-75
2022/04/13 10:44:33;;;;;;;27.77;25.77;;;22.50;45.20;;;;;;5074315;28;20477;-75
2022/04/13 10:47:03;;;;;;;29.63;27.13;;;22.50;45.20;;;;;;5074442;28;20449;-75
2022/04/13 10:49:35;;;;;;;30.30;28.40;;;22.80;45.30;;;;;;5074110;28;20481;-75
2022/04/13 10:52:07;;;;;;;31.00;28.80;;;23.00;44.70;;;;;;5074252;28;20462;-75
2022/04/13 10:54:38;;;;;;;27.50;25.70;;;23.20;44.60;;;;;;5074216;28;20470;-75
2022/04/13 10:57:07;;;;;;;28.20;26.40;;;23.30;44.50;;;;;;5074046;28;20474;-75
2022/04/13 10:59:44;;;;;;;30.77;28.20;;;23.30;44.60;;;;;;5073729;28;20825;-75
2022/04/13 11:02:24;;;;;;;29.10;27.10;;;23.50;44.40;;;;;;5074161;28;20485;-75
2022/04/13 11:04:53;;;;;;;28.43;26.50;;;23.50;44.00;;;;;;5074128;28;20994;-75
2022/04/13 11:07:20;;;;;;;30.40;28.00;;;23.50;44.00;;;;;;5073925;28;20933;-75
2022/04/13 11:09:50;;;;;;;28.97;27.13;;;23.40;45.00;;;;;;5072228;28;20508;-75
2022/04/13 11:12:17;;;;;;;30.10;28.10;;;23.60;45.10;;;;;;5073480;28;21011;-75
2022/04/13 11:14:51;;;;;;;29.07;26.53;;;23.50;45.30;;;;;;5073899;28;20801;-75
2022/04/13 11:17:24;;;;;;;29.77;27.57;;;23.50;45.10;;;;;;5073876;28;20481;-75
2022/04/13 11:19:51;;;;;;;29.57;27.47;;;23.50;44.90;;;;;;5073193;28;20823;-75
2022/04/13 11:22:19;;;;;;;29.47;27.37;;;23.70;44.80;;;;;;5073713;28;20875;-75
2022/04/13 11:24:58;;;;;;;29.37;27.37;;;23.80;44.70;;;;;;5073786;28;20458;-75
2022/04/13 11:27:26;;;;;;;28.90;26.47;;;23.60;44.00;;;;;;5073583;28;20777;-75
2022/04/13 11:30:02;;;;;;;27.63;25.57;;;23.60;43.80;;;;;;5073132;28;20450;-75
2022/04/13 11:32:32;;;;;;;30.27;28.37;;;23.60;44.10;;;;;;5073434;28;20465;-75
2022/04/13 11:35:02;;;;;;;28.60;26.30;;;23.60;44.50;;;;;;5073590;28;20454;-75
2022/04/13 11:37:43;;;;;;;29.93;27.47;;;23.70;43.80;;;;;;5073294;28;20474;-75
2022/04/13 11:40:13;;;;;;;28.27;26.27;;;23.80;43.50;;;;;;5072889;28;20952;-75
2022/04/13 11:43:02;;;;;;;28.93;26.83;;;23.70;43.40;;;;;;5073155;28;20971;-75
2022/04/13 11:45:31;;;;;;;29.47;27.27;;;23.70;43.30;;;;;;5073513;28;20533;-75
2022/04/13 11:48:04;;;;;;;28.97;26.93;;;23.70;43.20;;;;;;5073223;28;20450;-75
2022/04/13 11:50:33;;;;;;;29.37;27.00;;;23.80;43.20;;;;;;5072786;28;20447;-75
2022/04/13 11:53:03;;;;;;;29.57;27.57;;;23.90;42.80;;;;;;5072968;28;20470;-75
2022/04/13 11:55:35;;;;;;;29.63;27.63;;;23.70;43.20;;;;;;5073187;28;21010;-75
2022/04/13 11:58:23;;;;;;;28.67;26.40;;;23.80;42.70;;;;;;5073009;28;20508;-75
2022/04/13 12:00:54;;;;;;;29.03;27.30;;;23.80;42.80;;;;;;5072502;28;20458;-75
2022/04/13 12:03:23;;;;;;;29.40;27.30;;;23.90;42.80;;;;;;5072833;28;20923;-75
2022/04/13 12:05:51;;;;;;;29.50;27.27;;;24.10;42.50;;;;;;5072869;28;20623;-75
2022/04/13 12:08:21;;;;;;;28.97;26.97;;;24.10;42.60;;;;;;5072865;28;20446;-75
2022/04/13 12:10:49;;;;;;;29.33;27.13;;;24.20;42.40;;;;;;5072314;28;20509;-75
2022/04/13 12:13:16;;;;;;;31.70;29.27;;;24.10;42.20;;;;;;5072166;28;20558;-75
2022/04/13 12:15:45;;;;;;;28.40;26.50;;;24.20;42.10;;;;;;5072719;28;20447;-75
2022/04/13 12:18:14;;;;;;;28.33;26.30;;;24.30;41.80;;;;;;5072380;28;20483;-75
2022/04/13 12:20:41;;;;;;;27.80;25.90;;;24.20;41.70;;;;;;5071969;28;20539;-75
2022/04/13 12:23:19;;;;;;;27.63;25.50;;;24.30;41.70;;;;;;5072512;28;20470;-75
2022/04/13 12:25:47;;;;;;;28.40;26.20;;;24.30;41.20;;;;;;5072667;28;20489;-75
2022/04/13 12:28:15;;;;;;;27.37;25.47;;;24.40;40.50;;;;;;5072381;28;20457;-75
2022/04/13 12:30:42;;;;;;;29.10;27.20;;;24.20;40.70;;;;;;5071965;28;20446;-75
2022/04/13 12:33:23;;;;;;;30.40;28.20;;;24.00;41.10;;;;;;5072437;28;21035;-75